Time;durP1;ratioP1;P1;durP2;ratioP2;P2;SDS_P1;SDS_P2;PMS_P1;PMS_P2;Temp;Humidity;BMP_temperature;BMP_pressure;BME280_temperature;BME280_humidity;BME280_pressure;Samples;Min_cycle;Max_cycle;Signal;HPM_P1;HPM_P2
2022/02/26 00:01:27;;;;;;;3.53;1.77;;;5.40;65.50;;;;;;2297765;55;20984;-68
2022/02/26 00:03:55;;;;;;;3.72;1.80;;;5.40;65.60;;;;;;2262899;57;21217;-69
2022/02/26 00:06:22;;;;;;;3.90;1.80;;;5.40;65.60;;;;;;2312715;55;20945;-68
2022/02/26 00:08:48;;;;;;;3.22;1.50;;;5.40;66.30;;;;;;2243634;57;21382;-68
2022/02/26 00:11:16;;;;;;;3.85;1.80;;;5.50;65.80;;;;;;2265231;55;21428;-68
2022/02/26 00:13:42;;;;;;;4.05;1.60;;;5.50;65.90;;;;;;2263313;56;21375;-68
2022/02/26 00:16:09;;;;;;;2.97;1.50;;;5.50;65.80;;;;;;2373341;55;20952;-68
2022/02/26 00:18:35;;;;;;;3.92;1.48;;;5.50;65.70;;;;;;2265581;56;21113;-68
2022/02/26 00:21:02;;;;;;;3.85;1.33;;;5.50;65.70;;;;;;2491196;55;21506;-68
2022/02/26 00:23:28;;;;;;;3.00;1.40;;;5.50;65.80;;;;;;2247921;56;21550;-68
2022/02/26 00:25:54;;;;;;;3.60;1.30;;;5.60;66.00;;;;;;2403642;55;21371;-68
2022/02/26 00:28:22;;;;;;;2.87;1.02;;;5.60;66.00;;;;;;2263456;56;21009;-69
2022/02/26 00:30:48;;;;;;;4.35;1.20;;;5.60;66.00;;;;;;2428387;55;20929;-68
2022/02/26 00:33:14;;;;;;;3.28;1.35;;;5.60;66.00;;;;;;2266810;56;20973;-68
2022/02/26 00:35:45;;;;;;;2.85;1.40;;;5.60;66.00;;;;;;2262406;56;21875;-69
2022/02/26 00:38:11;;;;;;;3.55;1.42;;;5.60;66.00;;;;;;2265085;55;21497;-69
2022/02/26 00:40:38;;;;;;;4.65;1.45;;;5.60;65.90;;;;;;2266629;55;20989;-68
2022/02/26 00:43:04;;;;;;;3.80;1.30;;;5.60;65.90;;;;;;2262002;56;21540;-69
2022/02/26 00:45:31;;;;;;;3.85;1.55;;;5.60;65.90;;;;;;2262909;55;21748;-69
2022/02/26 00:47:58;;;;;;;3.10;1.20;;;5.70;66.00;;;;;;2316741;55;20996;-69
2022/02/26 00:50:24;;;;;;;2.95;1.30;;;5.70;66.10;;;;;;2255415;56;21482;-68
2022/02/26 00:52:52;;;;;;;3.42;1.27;;;5.60;66.10;;;;;;2265199;56;21529;-68
2022/02/26 00:55:30;;;;;;;3.33;1.20;;;5.70;66.20;;;;;;2268623;55;21004;-68
2022/02/26 00:57:57;;;;;;;3.90;1.70;;;5.70;66.20;;;;;;2262948;56;20997;-69
2022/02/26 01:00:23;;;;;;;3.72;1.60;;;5.70;66.10;;;;;;2264732;56;20958;-68
2022/02/26 01:02:53;;;;;;;3.28;1.60;;;5.70;66.80;;;;;;2519393;55;21122;-68
2022/02/26 01:05:22;;;;;;;3.62;1.45;;;5.70;66.10;;;;;;2407870;55;21043;-68
2022/02/26 01:07:51;;;;;;;2.25;1.20;;;5.70;66.10;;;;;;2339602;55;21002;-68
2022/02/26 01:10:17;;;;;;;2.17;1.00;;;5.70;66.10;;;;;;2284757;55;20990;-69
2022/02/26 01:12:44;;;;;;;1.95;0.80;;;5.60;66.00;;;;;;2283766;55;21034;-69
2022/02/26 01:15:10;;;;;;;4.87;1.35;;;5.70;66.10;;;;;;2284561;55;21018;-69
2022/02/26 01:17:37;;;;;;;2.53;1.20;;;5.70;66.10;;;;;;2386235;55;20950;-69
2022/02/26 01:20:03;;;;;;;2.15;1.08;;;5.70;66.20;;;;;;2284650;55;20970;-69
2022/02/26 01:22:35;;;;;;;2.20;0.95;;;5.60;66.30;;;;;;2289376;55;20982;-69
2022/02/26 01:25:01;;;;;;;2.47;1.12;;;5.60;66.40;;;;;;2420287;55;21435;-69
2022/02/26 01:27:28;;;;;;;2.25;1.00;;;5.70;66.50;;;;;;2284616;55;20938;-69
2022/02/26 01:29:54;;;;;;;3.05;1.05;;;5.70;66.50;;;;;;2285119;55;21020;-69
2022/02/26 01:32:21;;;;;;;2.85;0.85;;;5.70;66.60;;;;;;2518464;55;21700;-69
2022/02/26 01:34:47;;;;;;;1.92;0.85;;;5.70;66.70;;;;;;2297045;55;21380;-69
2022/02/26 01:37:14;;;;;;;2.15;0.90;;;5.70;66.80;;;;;;2283381;56;20954;-69
2022/02/26 01:39:40;;;;;;;1.95;0.80;;;5.70;66.70;;;;;;2289159;55;20962;-69
2022/02/26 01:42:09;;;;;;;2.03;0.70;;;5.70;66.70;;;;;;2285950;55;21763;-69
2022/02/26 01:44:37;;;;;;;4.50;0.98;;;5.70;66.70;;;;;;2281467;55;21005;-69
2022/02/26 01:47:05;;;;;;;2.17;0.73;;;5.70;66.80;;;;;;2283545;55;20962;-69
2022/02/26 01:49:34;;;;;;;3.17;0.95;;;5.70;66.80;;;;;;2411298;55;20962;-69
2022/02/26 01:52:01;;;;;;;2.35;0.70;;;5.70;66.80;;;;;;2268922;56;20970;-69
2022/02/26 01:54:30;;;;;;;2.40;0.70;;;5.70;66.80;;;;;;2301090;55;21018;-69
2022/02/26 01:56:58;;;;;;;1.85;0.73;;;5.80;67.00;;;;;;2287269;55;20978;-69
2022/02/26 01:59:25;;;;;;;1.87;0.70;;;5.80;67.00;;;;;;2395681;54;20950;-69
2022/02/26 02:01:52;;;;;;;1.92;0.82;;;5.80;66.90;;;;;;2290143;55;21154;-69
2022/02/26 02:04:19;;;;;;;1.70;0.70;;;5.80;66.90;;;;;;2305325;55;20930;-69
2022/02/26 02:06:45;;;;;;;1.98;0.70;;;5.80;66.90;;;;;;2288941;55;20938;-69
2022/02/26 02:09:12;;;;;;;2.30;0.80;;;5.80;66.80;;;;;;2461570;55;21003;-70
2022/02/26 02:11:39;;;;;;;2.05;0.85;;;5.80;66.80;;;;;;2288510;55;20993;-68
2022/02/26 02:14:06;;;;;;;2.25;0.80;;;5.80;66.70;;;;;;2435623;55;21914;-69
2022/02/26 02:16:36;;;;;;;2.10;0.80;;;5.80;66.70;;;;;;2289687;55;20970;-68
2022/02/26 02:19:07;;;;;;;2.55;0.90;;;5.80;66.60;;;;;;2482088;55;20962;-68
2022/02/26 02:21:33;;;;;;;3.25;0.90;;;5.80;66.50;;;;;;2267514;56;21411;-68
2022/02/26 02:24:00;;;;;;;2.47;1.00;;;5.80;66.60;;;;;;2355650;55;20954;-69
2022/02/26 02:26:27;;;;;;;2.75;1.08;;;5.80;66.60;;;;;;2289503;55;21017;-69
2022/02/26 02:28:54;;;;;;;2.58;1.00;;;5.80;66.70;;;;;;2404564;55;21078;-69
2022/02/26 02:31:20;;;;;;;2.62;1.00;;;5.80;66.80;;;;;;2286299;55;20969;-68
2022/02/26 02:33:50;;;;;;;2.15;1.00;;;5.80;66.90;;;;;;2472388;54;21844;-69
2022/02/26 02:36:16;;;;;;;2.40;0.90;;;5.80;67.00;;;;;;2360502;55;21023;-69
2022/02/26 02:38:43;;;;;;;2.78;1.20;;;5.80;67.10;;;;;;2481491;55;21026;-69
2022/02/26 02:41:09;;;;;;;3.00;0.82;;;5.80;67.10;;;;;;2290530;55;20998;-69
2022/02/26 02:43:36;;;;;;;3.95;0.90;;;5.80;67.00;;;;;;2392171;55;21562;-69
2022/02/26 02:46:02;;;;;;;1.62;0.73;;;5.80;67.00;;;;;;2289050;55;21055;-70
2022/02/26 02:48:30;;;;;;;4.30;1.05;;;5.80;67.00;;;;;;2307901;55;21054;-68
2022/02/26 02:50:57;;;;;;;2.72;1.33;;;5.80;66.90;;;;;;2289826;55;21017;-69
2022/02/26 02:53:24;;;;;;;2.40;1.02;;;5.80;66.80;;;;;;2290057;55;21002;-69
2022/02/26 02:55:50;;;;;;;3.33;1.00;;;5.80;66.80;;;;;;2289140;55;20966;-69
2022/02/26 02:58:24;;;;;;;3.05;1.20;;;5.70;66.70;;;;;;2306523;55;20961;-70
2022/02/26 03:00:51;;;;;;;2.60;1.00;;;5.70;66.80;;;;;;2303247;55;21518;-69
2022/02/26 03:03:18;;;;;;;2.72;1.00;;;5.70;66.90;;;;;;2365089;55;20970;-68
2022/02/26 03:05:44;;;;;;;3.58;0.90;;;5.70;66.90;;;;;;2290875;55;21010;-69
2022/02/26 03:08:11;;;;;;;2.67;0.98;;;5.70;67.00;;;;;;2294542;55;20961;-70
2022/02/26 03:10:37;;;;;;;4.00;1.25;;;5.70;66.90;;;;;;2438731;54;21109;-68
2022/02/26 03:13:04;;;;;;;3.12;1.27;;;5.70;66.90;;;;;;2343949;54;20962;-68
2022/02/26 03:15:31;;;;;;;3.25;1.40;;;5.70;66.80;;;;;;2290443;55;21010;-68
2022/02/26 03:18:00;;;;;;;3.62;1.30;;;5.60;66.80;;;;;;2400223;55;20974;-68
2022/02/26 03:20:29;;;;;;;3.00;1.40;;;5.60;66.90;;;;;;2288894;55;21033;-68
2022/02/26 03:22:55;;;;;;;3.62;1.50;;;5.60;67.80;;;;;;2523261;55;20942;-68
2022/02/26 03:25:23;;;;;;;4.03;1.60;;;5.60;67.20;;;;;;2289014;55;20982;-68
2022/02/26 03:27:51;;;;;;;2.87;1.55;;;5.60;67.30;;;;;;2408648;55;21029;-69
2022/02/26 03:30:17;;;;;;;3.33;1.60;;;5.60;67.40;;;;;;2269155;55;1265566;-69
2022/02/26 03:32:44;;;;;;;5.12;1.70;;;5.70;67.60;;;;;;2282880;55;21521;-69
2022/02/26 03:35:11;;;;;;;4.22;1.70;;;5.70;67.70;;;;;;2289401;55;21440;-69
2022/02/26 03:37:38;;;;;;;4.18;2.00;;;5.70;67.80;;;;;;2285696;55;21012;-69
2022/02/26 03:40:05;;;;;;;3.87;1.45;;;5.70;67.80;;;;;;2524178;55;21276;-68
2022/02/26 03:42:32;;;;;;;4.45;1.90;;;5.70;67.90;;;;;;2289326;55;20949;-69
2022/02/26 03:45:12;;;;;;;3.83;1.90;;;5.80;68.00;;;;;;2307120;55;20981;-69
2022/02/26 03:47:38;;;;;;;4.07;2.08;;;5.80;67.90;;;;;;2288838;55;21062;-69
2022/02/26 03:50:08;;;;;;;3.53;1.70;;;5.80;67.70;;;;;;2288569;55;21018;-68
2022/02/26 03:52:36;;;;;;;3.55;1.60;;;5.80;67.70;;;;;;2289004;55;20961;-68
2022/02/26 03:55:04;;;;;;;3.65;1.73;;;5.80;67.70;;;;;;2363212;55;21124;-69
2022/02/26 03:57:33;;;;;;;3.85;1.80;;;5.80;67.70;;;;;;2288735;55;20949;-69
2022/02/26 03:59:59;;;;;;;3.85;1.42;;;5.80;67.60;;;;;;2289199;55;21041;-69
2022/02/26 04:02:26;;;;;;;3.60;1.40;;;5.80;67.70;;;;;;2523780;55;21510;-68
2022/02/26 04:04:53;;;;;;;4.55;1.70;;;5.80;67.70;;;;;;2289392;55;20970;-68
2022/02/26 04:07:23;;;;;;;4.05;1.60;;;5.80;67.70;;;;;;2475715;55;21047;-69
2022/02/26 04:09:49;;;;;;;3.60;1.85;;;5.80;67.70;;;;;;2266111;56;21581;-69
2022/02/26 04:12:17;;;;;;;4.47;1.70;;;5.80;67.70;;;;;;2267383;56;21057;-68
2022/02/26 04:14:47;;;;;;;4.37;1.92;;;5.80;67.70;;;;;;2289328;55;21018;-69
2022/02/26 04:17:13;;;;;;;4.03;1.90;;;5.90;67.80;;;;;;2288599;55;20990;-69
2022/02/26 04:19:43;;;;;;;3.53;2.20;;;5.80;67.70;;;;;;2309903;55;21069;-69
2022/02/26 04:22:09;;;;;;;3.65;1.87;;;5.80;67.70;;;;;;2289346;55;21001;-68
2022/02/26 04:24:36;;;;;;;3.72;2.03;;;5.80;67.70;;;;;;2289829;55;21005;-69
2022/02/26 04:27:04;;;;;;;4.68;2.53;;;5.90;67.80;;;;;;2287943;55;20950;-68
2022/02/26 04:29:31;;;;;;;5.30;2.50;;;5.90;67.90;;;;;;2288571;55;21018;-69
2022/02/26 04:31:57;;;;;;;4.60;2.60;;;5.90;67.90;;;;;;2289368;55;21043;-69
2022/02/26 04:34:24;;;;;;;4.47;2.53;;;5.80;67.80;;;;;;2289519;55;21452;-69
2022/02/26 04:36:51;;;;;;;5.22;2.80;;;5.90;67.90;;;;;;2289399;55;21064;-69
2022/02/26 04:39:18;;;;;;;5.90;2.78;;;5.90;68.00;;;;;;2288715;55;20969;-69
2022/02/26 04:41:44;;;;;;;4.47;2.42;;;5.90;68.00;;;;;;2288931;55;21412;-68
2022/02/26 04:44:10;;;;;;;5.10;2.37;;;5.90;67.90;;;;;;2288275;55;21520;-68
2022/02/26 04:46:37;;;;;;;4.10;2.10;;;5.90;67.90;;;;;;2288911;55;20942;-69
2022/02/26 04:49:04;;;;;;;4.20;2.25;;;5.90;67.90;;;;;;2288545;55;21121;-69
2022/02/26 04:51:30;;;;;;;5.10;2.33;;;5.90;67.90;;;;;;2288395;55;21050;-69
2022/02/26 04:53:57;;;;;;;5.65;2.50;;;5.90;68.00;;;;;;2357963;55;20977;-69
2022/02/26 04:56:23;;;;;;;6.03;2.40;;;5.90;67.90;;;;;;2478351;55;20962;-70
2022/02/26 04:58:49;;;;;;;4.95;2.00;;;5.90;68.00;;;;;;2288451;55;21021;-69
2022/02/26 05:01:16;;;;;;;5.75;2.80;;;5.90;68.00;;;;;;2446486;55;20966;-69
2022/02/26 05:03:43;;;;;;;4.68;2.42;;;5.90;68.00;;;;;;2290205;55;21023;-69
2022/02/26 05:06:10;;;;;;;5.25;3.00;;;5.90;68.00;;;;;;2286520;55;21131;-69
2022/02/26 05:08:36;;;;;;;5.50;2.58;;;5.90;68.00;;;;;;2288862;55;20957;-68
2022/02/26 05:11:03;;;;;;;5.82;2.67;;;5.90;68.10;;;;;;2371817;55;21021;-68
2022/02/26 05:13:30;;;;;;;4.57;2.83;;;5.90;68.10;;;;;;2289301;55;21058;-69
2022/02/26 05:15:56;;;;;;;4.95;2.67;;;6.00;68.20;;;;;;2288955;55;20982;-69
2022/02/26 05:18:23;;;;;;;4.78;2.55;;;6.00;68.20;;;;;;2289182;55;21006;-70
2022/02/26 05:20:49;;;;;;;5.25;2.97;;;5.90;68.00;;;;;;2297698;54;20978;-69
2022/02/26 05:23:15;;;;;;;3.42;2.08;;;6.00;68.10;;;;;;2286037;55;20974;-69
2022/02/26 05:25:41;;;;;;;5.25;3.08;;;5.90;68.00;;;;;;2288687;55;21006;-68
2022/02/26 05:28:08;;;;;;;5.12;2.75;;;5.90;68.00;;;;;;2366394;55;20974;-69
2022/02/26 05:30:34;;;;;;;4.93;2.83;;;6.00;68.10;;;;;;2289359;55;20922;-69
2022/02/26 05:33:01;;;;;;;4.10;2.50;;;6.00;68.10;;;;;;2289444;55;20961;-69
2022/02/26 05:35:29;;;;;;;4.30;2.53;;;6.00;68.00;;;;;;2452023;55;21566;-69
2022/02/26 05:37:55;;;;;;;4.40;2.45;;;6.00;67.80;;;;;;2289298;54;20989;-68
2022/02/26 05:40:21;;;;;;;4.97;2.70;;;5.90;67.60;;;;;;2521087;55;20969;-69
2022/02/26 05:42:48;;;;;;;4.65;2.70;;;5.90;67.50;;;;;;2301200;55;21407;-68
2022/02/26 05:45:14;;;;;;;5.32;2.70;;;5.90;67.40;;;;;;2446365;55;20985;-69
2022/02/26 05:47:41;;;;;;;4.28;2.35;;;5.90;67.30;;;;;;2289311;55;21001;-69
2022/02/26 05:50:08;;;;;;;3.92;2.28;;;5.80;67.20;;;;;;2524057;55;21018;-68
2022/02/26 05:52:36;;;;;;;4.25;2.47;;;5.80;67.10;;;;;;2287142;55;21061;-68
2022/02/26 05:55:15;;;;;;;4.85;2.42;;;5.80;67.10;;;;;;2315002;55;21409;-68
2022/02/26 05:57:43;;;;;;;4.15;2.42;;;5.70;67.00;;;;;;2315299;55;21038;-69
2022/02/26 06:00:10;;;;;;;4.95;2.60;;;5.70;67.00;;;;;;2436505;55;20997;-68
2022/02/26 06:02:40;;;;;;;4.97;2.50;;;5.70;67.10;;;;;;2313136;55;21438;-70
2022/02/26 06:05:08;;;;;;;4.37;1.77;;;5.60;67.00;;;;;;2421871;55;20994;-68
2022/02/26 06:07:35;;;;;;;5.53;2.15;;;5.60;67.00;;;;;;2286073;55;20986;-69
2022/02/26 06:10:01;;;;;;;4.43;2.30;;;5.60;67.00;;;;;;2384112;55;20954;-68
2022/02/26 06:12:27;;;;;;;3.78;2.00;;;5.60;67.00;;;;;;2289863;55;21581;-68
2022/02/26 06:14:58;;;;;;;5.15;2.22;;;5.50;66.90;;;;;;2490381;55;21072;-68
2022/02/26 06:17:24;;;;;;;4.78;2.62;;;5.50;66.80;;;;;;2284646;55;20942;-68
2022/02/26 06:19:51;;;;;;;4.10;2.08;;;5.50;66.80;;;;;;2436437;55;21078;-68
2022/02/26 06:22:17;;;;;;;5.32;2.30;;;5.40;66.70;;;;;;2289838;55;20922;-69
2022/02/26 06:24:44;;;;;;;5.75;2.70;;;5.40;66.60;;;;;;2366371;55;21046;-68
2022/02/26 06:27:10;;;;;;;4.78;2.30;;;5.30;66.60;;;;;;2288628;55;20984;-68
2022/02/26 06:29:37;;;;;;;5.45;2.90;;;5.30;66.60;;;;;;2523928;55;20934;-69
2022/02/26 06:32:06;;;;;;;4.97;2.37;;;5.30;66.60;;;;;;2289422;55;20966;-69
2022/02/26 06:34:33;;;;;;;4.97;2.10;;;5.20;66.40;;;;;;2393140;55;20950;-68
2022/02/26 06:36:59;;;;;;;6.87;2.85;;;5.20;66.40;;;;;;2290022;55;20990;-68
2022/02/26 06:39:26;;;;;;;6.35;3.08;;;5.10;66.30;;;;;;2348771;55;21002;-68
2022/02/26 06:41:53;;;;;;;6.32;3.20;;;5.10;66.30;;;;;;2287401;54;21780;-68
2022/02/26 06:44:28;;;;;;;6.15;2.87;;;5.10;66.40;;;;;;2481555;55;21463;-69
2022/02/26 06:46:55;;;;;;;6.90;3.28;;;5.00;66.30;;;;;;2289514;55;20957;-68
2022/02/26 06:49:22;;;;;;;6.75;3.75;;;5.00;66.30;;;;;;2307308;55;20974;-68
2022/02/26 06:51:48;;;;;;;5.60;3.00;;;4.90;66.30;;;;;;2290249;55;21001;-69
2022/02/26 06:54:17;;;;;;;6.82;3.42;;;4.90;66.40;;;;;;2315013;55;20957;-69
2022/02/26 06:56:43;;;;;;;7.07;3.35;;;4.80;66.30;;;;;;2288945;55;21488;-68
2022/02/26 06:59:10;;;;;;;5.07;2.80;;;4.80;66.40;;;;;;2366859;55;21538;-68
2022/02/26 07:01:37;;;;;;;8.10;3.60;;;4.80;66.50;;;;;;2324176;55;21090;-68
2022/02/26 07:04:04;;;;;;;6.90;3.20;;;4.70;66.60;;;;;;2365471;55;20954;-68
2022/02/26 07:06:31;;;;;;;5.82;2.97;;;4.70;66.80;;;;;;2289637;55;21097;-69
2022/02/26 07:08:58;;;;;;;5.05;2.72;;;4.70;67.00;;;;;;2379332;55;21529;-69
2022/02/26 07:11:24;;;;;;;5.62;3.08;;;4.70;67.30;;;;;;2289131;55;21391;-68
2022/02/26 07:13:50;;;;;;;5.35;3.00;;;4.70;67.50;;;;;;2367785;55;21063;-68
2022/02/26 07:16:17;;;;;;;7.60;3.72;;;4.70;67.80;;;;;;2343534;55;21019;-68
2022/02/26 07:18:43;;;;;;;7.32;2.95;;;4.70;68.00;;;;;;2292000;55;21057;-68
2022/02/26 07:21:10;;;;;;;8.15;2.97;;;4.80;68.30;;;;;;2520924;55;20967;-68
2022/02/26 07:23:38;;;;;;;6.68;3.20;;;4.80;68.50;;;;;;2321691;55;20933;-70
2022/02/26 07:26:05;;;;;;;5.75;3.17;;;4.90;68.70;;;;;;2288410;55;20979;-69
2022/02/26 07:28:32;;;;;;;6.10;3.03;;;4.90;68.80;;;;;;2351306;55;20954;-69
2022/02/26 07:30:59;;;;;;;6.95;3.37;;;4.90;68.90;;;;;;2288992;55;20953;-68
2022/02/26 07:33:25;;;;;;;7.55;4.00;;;5.00;69.10;;;;;;2435186;55;20942;-70
2022/02/26 07:35:52;;;;;;;7.22;4.10;;;5.00;69.10;;;;;;2289216;55;20950;-68
2022/02/26 07:38:18;;;;;;;10.32;5.70;;;5.10;69.20;;;;;;2445783;55;20994;-69
2022/02/26 07:40:47;;;;;;;9.75;5.22;;;5.10;69.30;;;;;;2288349;55;21021;-68
2022/02/26 07:43:13;;;;;;;9.98;4.62;;;5.20;69.50;;;;;;2354297;55;21005;-70
2022/02/26 07:45:41;;;;;;;7.12;4.20;;;5.20;69.50;;;;;;2287593;55;20942;-69
2022/02/26 07:48:08;;;;;;;8.40;3.65;;;5.30;69.60;;;;;;2404700;55;21805;-70
2022/02/26 07:50:34;;;;;;;11.90;4.97;;;5.30;69.50;;;;;;2288978;55;21446;-69
2022/02/26 07:53:01;;;;;;;11.15;5.30;;;5.40;69.60;;;;;;2287991;55;21013;-69
2022/02/26 07:55:27;;;;;;;9.38;4.75;;;5.40;69.60;;;;;;2286713;55;20970;-69
2022/02/26 07:57:54;;;;;;;11.45;4.90;;;5.50;69.80;;;;;;2347196;55;20994;-69
2022/02/26 08:00:21;;;;;;;8.88;4.43;;;5.50;69.90;;;;;;2287465;55;20945;-69
2022/02/26 08:02:49;;;;;;;7.85;4.10;;;5.60;70.90;;;;;;2288227;55;20958;-70
2022/02/26 08:05:17;;;;;;;19.15;8.75;;;5.70;70.50;;;;;;2287738;55;20942;-69
2022/02/26 08:07:45;;;;;;;14.70;7.35;;;5.70;70.50;;;;;;2284724;55;21060;-70
2022/02/26 08:10:12;;;;;;;17.12;8.00;;;5.80;70.50;;;;;;2287435;55;21801;-69
2022/02/26 08:12:40;;;;;;;11.98;6.32;;;5.90;70.50;;;;;;2521495;55;20991;-69
2022/02/26 08:15:08;;;;;;;9.35;5.70;;;5.90;70.30;;;;;;2521639;55;20970;-68
2022/02/26 08:17:36;;;;;;;10.23;5.60;;;6.00;70.30;;;;;;2369161;55;21021;-69
2022/02/26 08:20:04;;;;;;;11.27;6.20;;;6.00;70.20;;;;;;2287336;55;20978;-69
2022/02/26 08:22:31;;;;;;;11.52;6.75;;;6.10;70.30;;;;;;2428092;55;20926;-69
2022/02/26 08:24:57;;;;;;;10.98;6.35;;;6.10;70.40;;;;;;2278177;55;20962;-70
2022/02/26 08:27:23;;;;;;;10.20;4.82;;;6.20;70.50;;;;;;2342806;55;21502;-70
2022/02/26 08:29:50;;;;;;;8.07;4.45;;;6.20;70.50;;;;;;2282901;55;21077;-69
2022/02/26 08:32:18;;;;;;;7.85;4.47;;;6.30;70.60;;;;;;2422606;54;20974;-69
2022/02/26 08:34:44;;;;;;;8.73;4.32;;;6.30;70.50;;;;;;2286645;55;22057;-69
2022/02/26 08:37:11;;;;;;;10.80;3.92;;;6.40;70.70;;;;;;2318291;55;20993;-70
2022/02/26 08:39:37;;;;;;;9.90;3.65;;;6.50;70.90;;;;;;2285460;55;21035;-70
2022/02/26 08:42:05;;;;;;;7.60;3.30;;;6.50;71.00;;;;;;2328789;55;20962;-69
2022/02/26 08:44:33;;;;;;;9.35;3.65;;;6.60;71.00;;;;;;2286936;55;21067;-69
2022/02/26 08:47:04;;;;;;;6.28;2.97;;;6.70;71.10;;;;;;2287543;55;20982;-69
2022/02/26 08:49:31;;;;;;;8.18;3.70;;;6.70;71.60;;;;;;2287626;55;20994;-70
2022/02/26 08:51:58;;;;;;;7.87;3.80;;;6.90;73.60;;;;;;2485975;55;21034;-70
2022/02/26 08:54:27;;;;;;;6.97;3.58;;;7.10;76.40;;;;;;2287096;55;20934;-71
2022/02/26 08:56:53;;;;;;;9.13;4.03;;;7.50;79.10;;;;;;2445016;55;21045;-71
2022/02/26 08:59:19;;;;;;;7.15;3.95;;;8.00;80.40;;;;;;2286941;55;21061;-69
2022/02/26 09:01:46;;;;;;;6.80;3.53;;;8.50;81.20;;;;;;2419840;55;21452;-70
2022/02/26 09:04:13;;;;;;;6.68;3.87;;;8.90;81.80;;;;;;2286425;55;21299;-70
2022/02/26 09:06:40;;;;;;;7.12;3.58;;;9.40;82.00;;;;;;2418103;55;20974;-71
2022/02/26 09:09:10;;;;;;;7.75;3.75;;;9.90;81.50;;;;;;2290729;55;21127;-70
2022/02/26 09:11:37;;;;;;;9.35;3.85;;;10.40;79.40;;;;;;2372775;55;21400;-71
2022/02/26 09:14:04;;;;;;;6.72;3.75;;;10.80;77.80;;;;;;2288321;55;21563;-70
2022/02/26 09:16:31;;;;;;;8.30;3.85;;;11.10;76.40;;;;;;2363665;55;20949;-71
2022/02/26 09:18:58;;;;;;;6.45;3.60;;;11.30;75.00;;;;;;2286619;55;20985;-71
2022/02/26 09:21:27;;;;;;;6.60;3.35;;;11.50;73.70;;;;;;2329618;55;21938;-70
2022/02/26 09:23:53;;;;;;;7.60;3.37;;;11.60;72.80;;;;;;2272050;55;21822;-72
2022/02/26 09:26:20;;;;;;;5.90;3.37;;;11.60;72.70;;;;;;2345598;55;20990;-71
2022/02/26 09:28:47;;;;;;;5.50;2.90;;;11.60;71.00;;;;;;2268695;55;20994;-70
2022/02/26 09:31:13;;;;;;;6.57;2.92;;;11.60;70.80;;;;;;2388557;55;21026;-71
2022/02/26 09:33:40;;;;;;;8.57;3.58;;;11.60;70.90;;;;;;2269265;55;22059;-72
2022/02/26 09:36:07;;;;;;;6.95;3.05;;;11.50;71.40;;;;;;2368253;55;21470;-71
2022/02/26 09:38:33;;;;;;;5.28;2.47;;;11.50;72.00;;;;;;2287497;55;20953;-70
2022/02/26 09:41:00;;;;;;;5.40;2.67;;;11.50;71.80;;;;;;2293286;55;21001;-70
2022/02/26 09:43:27;;;;;;;7.20;3.22;;;11.50;72.40;;;;;;2287476;55;20962;-71
2022/02/26 09:45:55;;;;;;;6.18;2.40;;;11.60;73.80;;;;;;2297940;55;20966;-71
2022/02/26 09:48:22;;;;;;;4.70;1.95;;;11.80;75.30;;;;;;2287564;55;21451;-71
2022/02/26 09:50:51;;;;;;;6.57;3.12;;;12.10;76.90;;;;;;2292326;55;21553;-72
2022/02/26 09:53:20;;;;;;;6.10;4.03;;;12.50;78.10;;;;;;2287415;55;21009;-72
2022/02/26 09:55:47;;;;;;;5.62;2.72;;;12.90;78.50;;;;;;2287132;55;21543;-71
2022/02/26 09:58:15;;;;;;;6.03;2.45;;;13.40;77.80;;;;;;2287292;55;20950;-71
2022/02/26 10:00:42;;;;;;;5.32;2.25;;;13.80;76.40;;;;;;2324297;55;20942;-72
2022/02/26 10:03:34;;;;;;;5.95;1.80;;;14.20;76.20;;;;;;2287302;55;20958;-71
2022/02/26 10:06:37;;;;;;;5.05;1.77;;;14.70;73.50;;;;;;2489411;55;21034;-71
2022/02/26 10:09:10;;;;;;;4.28;2.00;;;14.90;71.50;;;;;;2287730;55;20954;-71
2022/02/26 10:11:38;;;;;;;7.05;1.65;;;15.10;70.00;;;;;;2334605;55;20952;-72
2022/02/26 10:14:13;;;;;;;3.87;1.65;;;15.20;68.10;;;;;;2287474;55;21025;-71
2022/02/26 10:16:51;;;;;;;5.60;2.03;;;15.20;66.10;;;;;;2279268;55;21037;-71
2022/02/26 10:19:34;;;;;;;4.20;1.80;;;15.20;66.10;;;;;;2316685;55;20942;-70
2022/02/26 10:22:03;;;;;;;4.37;1.70;;;15.20;66.10;;;;;;2291462;55;21049;-71
2022/02/26 10:24:32;;;;;;;4.07;1.62;;;15.20;68.00;;;;;;2287018;55;21108;-71
2022/02/26 10:27:05;;;;;;;5.10;2.08;;;15.30;67.90;;;;;;2290842;55;20970;-71
2022/02/26 10:29:36;;;;;;;5.75;1.70;;;15.30;67.30;;;;;;2287799;55;21118;-71
2022/02/26 10:32:04;;;;;;;4.35;1.80;;;15.20;65.90;;;;;;2389820;55;21542;-71
2022/02/26 10:34:41;;;;;;;6.97;1.65;;;15.10;64.70;;;;;;2286849;55;21034;-72
2022/02/26 10:37:13;;;;;;;5.10;1.65;;;14.90;63.20;;;;;;2307376;55;20982;-72
2022/02/26 10:39:43;;;;;;;4.75;1.62;;;14.70;63.10;;;;;;2292683;55;21810;-70
2022/02/26 10:42:32;;;;;;;4.78;1.52;;;14.50;63.10;;;;;;2263965;55;20994;-71
2022/02/26 10:45:13;;;;;;;5.00;1.55;;;14.20;61.70;;;;;;2285319;55;20978;-71
2022/02/26 10:47:43;;;;;;;3.70;1.55;;;14.00;62.60;;;;;;2284124;55;20973;-71
2022/02/26 10:50:23;;;;;;;3.12;1.40;;;13.80;64.00;;;;;;2265461;56;21054;-71
2022/02/26 10:53:00;;;;;;;4.03;1.60;;;13.70;64.60;;;;;;2311045;55;21781;-71
2022/02/26 10:55:51;;;;;;;4.82;1.65;;;13.70;66.10;;;;;;2284231;55;20974;-71
2022/02/26 10:58:44;;;;;;;2.75;1.52;;;13.70;66.40;;;;;;2282227;55;20981;-73
2022/02/26 11:01:29;;;;;;;4.30;1.75;;;13.80;66.50;;;;;;2282277;55;21316;-68
2022/02/26 11:04:01;;;;;;;3.87;1.35;;;13.90;67.50;;;;;;2287389;55;20950;-70
2022/02/26 11:06:28;;;;;;;3.08;1.40;;;14.00;69.90;;;;;;2287658;55;20987;-70
2022/02/26 11:09:12;;;;;;;4.35;1.50;;;14.30;71.50;;;;;;2333854;55;21443;-70
2022/02/26 11:11:40;;;;;;;5.40;1.20;;;14.50;69.80;;;;;;2265074;56;20993;-70
2022/02/26 11:14:06;;;;;;;3.35;1.40;;;14.80;72.10;;;;;;2281480;55;21490;-70
2022/02/26 11:16:33;;;;;;;5.55;1.35;;;15.00;71.20;;;;;;2343900;55;21013;-69
2022/02/26 11:18:59;;;;;;;5.93;1.30;;;15.20;70.10;;;;;;2287286;55;20966;-69
2022/02/26 11:21:26;;;;;;;4.87;0.93;;;15.30;68.10;;;;;;2356206;55;21633;-69
2022/02/26 11:23:52;;;;;;;4.87;1.20;;;15.30;65.70;;;;;;2287019;55;20985;-71
2022/02/26 11:26:46;;;;;;;6.25;1.08;;;15.30;64.20;;;;;;2282006;55;20974;-69
2022/02/26 11:29:13;;;;;;;3.97;1.00;;;15.10;61.20;;;;;;2287649;55;21042;-71
2022/02/26 11:31:47;;;;;;;3.47;1.20;;;14.90;61.80;;;;;;2289110;54;21031;-69
2022/02/26 11:34:21;;;;;;;4.32;1.30;;;14.60;59.90;;;;;;2271176;54;21432;-70
2022/02/26 11:36:50;;;;;;;4.93;1.10;;;14.30;59.70;;;;;;2281929;55;21487;-69
2022/02/26 11:39:23;;;;;;;3.72;1.08;;;14.00;60.00;;;;;;2377713;55;20950;-69
2022/02/26 11:41:49;;;;;;;4.12;1.10;;;13.70;59.70;;;;;;2521331;55;20946;-68
2022/02/26 11:45:46;;;;;;;4.22;1.35;;;13.50;60.30;;;;;;2287662;55;20990;-69
2022/02/26 11:48:17;;;;;;;8.55;1.45;;;13.20;59.20;;;;;;2264916;56;21013;-68
2022/02/26 11:50:44;;;;;;;3.10;1.02;;;12.90;63.80;;;;;;2264828;56;20974;-69
2022/02/26 11:53:20;;;;;;;3.55;1.48;;;13.00;66.50;;;;;;2287870;55;21002;-69
2022/02/26 11:55:57;;;;;;;4.90;1.52;;;13.10;67.70;;;;;;2265332;56;20974;-69
2022/02/26 11:58:34;;;;;;;5.07;1.17;;;13.40;69.60;;;;;;2367047;55;20941;-69
2022/02/26 12:01:16;;;;;;;5.10;1.20;;;13.70;71.10;;;;;;2357838;55;21525;-69
2022/02/26 12:03:51;;;;;;;5.80;1.23;;;14.00;69.30;;;;;;2288060;55;21009;-69
2022/02/26 12:06:35;;;;;;;3.37;1.08;;;14.30;69.90;;;;;;2319132;55;20974;-70
2022/02/26 12:09:10;;;;;;;5.12;1.58;;;14.60;67.50;;;;;;2363707;55;20970;-69
2022/02/26 12:11:44;;;;;;;4.22;1.10;;;14.70;67.90;;;;;;2391522;55;21089;-70
2022/02/26 12:14:25;;;;;;;3.17;0.98;;;14.90;66.70;;;;;;2290461;55;21811;-69
2022/02/26 12:17:04;;;;;;;4.20;1.00;;;15.00;65.40;;;;;;2359243;55;21010;-69
2022/02/26 12:19:31;;;;;;;2.90;1.00;;;15.00;64.70;;;;;;2277586;55;21021;-69
2022/02/26 12:22:04;;;;;;;3.47;1.05;;;15.00;64.60;;;;;;2289236;55;21096;-70
2022/02/26 12:24:31;;;;;;;;;;;15.00;64.40;;;;;;2315533;54;20950;-70
2022/02/26 12:27:04;;;;;;;4.07;1.10;;;15.00;63.60;;;;;;2287613;55;20136;-69
2022/02/26 12:30:31;;;;;;;5.43;1.27;;;15.00;64.30;;;;;;2375484;55;21081;-70
2022/02/26 12:33:03;;;;;;;4.37;1.50;;;15.10;63.40;;;;;;2287373;55;20981;-69
2022/02/26 12:35:31;;;;;;;3.80;1.20;;;15.10;65.20;;;;;;2313543;55;20926;-71
2022/02/26 12:37:57;;;;;;;7.03;1.30;;;15.20;65.30;;;;;;2285884;55;20978;-71
2022/02/26 12:40:33;;;;;;;4.68;1.42;;;15.30;65.20;;;;;;2521099;55;21829;-71
2022/02/26 12:43:06;;;;;;;5.55;1.30;;;15.40;63.60;;;;;;2290879;54;21013;-71
2022/02/26 12:45:48;;;;;;;5.53;1.48;;;15.40;64.60;;;;;;2279511;55;21018;-71
2022/02/26 12:48:17;;;;;;;5.32;1.10;;;15.50;64.10;;;;;;2288150;55;21077;-70
2022/02/26 12:50:44;;;;;;;5.70;1.27;;;15.50;65.20;;;;;;2285659;55;21515;-71
2022/02/26 12:53:10;;;;;;;5.25;1.50;;;15.60;65.40;;;;;;2265165;55;21018;-69
2022/02/26 12:55:37;;;;;;;5.50;1.33;;;15.70;65.20;;;;;;2303851;55;20986;-70
2022/02/26 12:58:03;;;;;;;8.40;1.40;;;15.80;65.60;;;;;;2286143;55;21666;-71
2022/02/26 13:00:33;;;;;;;5.37;1.50;;;15.90;66.10;;;;;;2317008;55;21038;-71
2022/02/26 13:03:07;;;;;;;4.05;1.50;;;16.00;65.20;;;;;;2506738;55;21002;-71